sensor_id;sensor_type;location;lat;lon;timestamp;pressure;altitude;pressure_sealevel;temperature
33877;BMP180;20166;51.738;7.158;2023-11-22T00:02:05;102076.00;;;7.00
33877;BMP180;20166;51.738;7.158;2023-11-22T00:04:51;102071.00;;;7.10
33877;BMP180;20166;51.738;7.158;2023-11-22T00:07:38;102054.00;;;7.00
33877;BMP180;20166;51.738;7.158;2023-11-22T00:10:24;102055.00;;;7.00
33877;BMP180;20166;51.738;7.158;2023-11-22T00:13:12;102061.00;;;6.90
33877;BMP180;20166;51.738;7.158;2023-11-22T00:15:59;102064.00;;;7.00
33877;BMP180;20166;51.738;7.158;2023-11-22T00:18:45;102057.00;;;6.90
33877;BMP180;20166;51.738;7.158;2023-11-22T00:21:32;102068.00;;;6.90
33877;BMP180;20166;51.738;7.158;2023-11-22T00:24:18;102073.00;;;6.90
33877;BMP180;20166;51.738;7.158;2023-11-22T00:27:05;102059.00;;;6.80
33877;BMP180;20166;51.738;7.158;2023-11-22T00:29:53;102071.00;;;6.90
33877;BMP180;20166;51.738;7.158;2023-11-22T00:32:39;102064.00;;;6.90
33877;BMP180;20166;51.738;7.158;2023-11-22T00:35:26;102068.00;;;6.90
33877;BMP180;20166;51.738;7.158;2023-11-22T00:38:13;102065.00;;;6.80
33877;BMP180;20166;51.738;7.158;2023-11-22T00:40:59;102062.00;;;6.70
33877;BMP180;20166;51.738;7.158;2023-11-22T00:43:47;102069.00;;;6.60
33877;BMP180;20166;51.738;7.158;2023-11-22T00:46:35;102076.00;;;6.60
33877;BMP180;20166;51.738;7.158;2023-11-22T00:49:22;102075.00;;;6.50
33877;BMP180;20166;51.738;7.158;2023-11-22T00:52:08;102077.00;;;6.40
33877;BMP180;20166;51.738;7.158;2023-11-22T00:54:54;102076.00;;;6.40
33877;BMP180;20166;51.738;7.158;2023-11-22T00:57:40;102092.00;;;6.30
33877;BMP180;20166;51.738;7.158;2023-11-22T01:00:27;102096.00;;;6.30
33877;BMP180;20166;51.738;7.158;2023-11-22T01:03:15;102099.00;;;6.30
33877;BMP180;20166;51.738;7.158;2023-11-22T01:06:01;102102.00;;;6.20
33877;BMP180;20166;51.738;7.158;2023-11-22T01:08:47;102107.00;;;6.10
33877;BMP180;20166;51.738;7.158;2023-11-22T01:11:34;102119.00;;;6.00
33877;BMP180;20166;51.738;7.158;2023-11-22T01:14:20;102116.00;;;6.00
33877;BMP180;20166;51.738;7.158;2023-11-22T01:17:07;102110.00;;;6.00
33877;BMP180;20166;51.738;7.158;2023-11-22T01:19:55;102110.00;;;5.90
33877;BMP180;20166;51.738;7.158;2023-11-22T01:22:43;102120.00;;;5.90
33877;BMP180;20166;51.738;7.158;2023-11-22T01:25:30;102120.00;;;5.80
33877;BMP180;20166;51.738;7.158;2023-11-22T01:28:16;102114.00;;;5.80
33877;BMP180;20166;51.738;7.158;2023-11-22T01:31:03;102120.00;;;5.80
33877;BMP180;20166;51.738;7.158;2023-11-22T01:33:50;102120.00;;;5.80
33877;BMP180;20166;51.738;7.158;2023-11-22T01:36:41;102128.00;;;5.70
33877;BMP180;20166;51.738;7.158;2023-11-22T01:39:28;102135.00;;;5.60
33877;BMP180;20166;51.738;7.158;2023-11-22T01:42:14;102138.00;;;5.60
33877;BMP180;20166;51.738;7.158;2023-11-22T01:45:01;102134.00;;;5.70
33877;BMP180;20166;51.738;7.158;2023-11-22T01:47:47;102156.00;;;5.60
33877;BMP180;20166;51.738;7.158;2023-11-22T01:50:33;102163.00;;;5.70
33877;BMP180;20166;51.738;7.158;2023-11-22T01:53:21;102164.00;;;5.60
33877;BMP180;20166;51.738;7.158;2023-11-22T01:56:08;102166.00;;;5.70
33877;BMP180;20166;51.738;7.158;2023-11-22T01:58:56;102181.00;;;5.70
33877;BMP180;20166;51.738;7.158;2023-11-22T02:01:44;102181.00;;;5.60
33877;BMP180;20166;51.738;7.158;2023-11-22T02:04:30;102182.00;;;5.60
33877;BMP180;20166;51.738;7.158;2023-11-22T02:07:17;102197.00;;;5.60
33877;BMP180;20166;51.738;7.158;2023-11-22T02:10:06;102188.00;;;5.50
33877;BMP180;20166;51.738;7.158;2023-11-22T02:12:53;102191.00;;;5.50
33877;BMP180;20166;51.738;7.158;2023-11-22T02:15:39;102192.00;;;5.50
33877;BMP180;20166;51.738;7.158;2023-11-22T02:18:26;102187.00;;;5.50
33877;BMP180;20166;51.738;7.158;2023-11-22T02:21:12;102179.00;;;5.40
33877;BMP180;20166;51.738;7.158;2023-11-22T02:24:01;102179.00;;;5.40
33877;BMP180;20166;51.738;7.158;2023-11-22T02:26:47;102177.00;;;5.40
33877;BMP180;20166;51.738;7.158;2023-11-22T02:29:34;102189.00;;;5.40
33877;BMP180;20166;51.738;7.158;2023-11-22T02:32:20;102186.00;;;5.30
33877;BMP180;20166;51.738;7.158;2023-11-22T02:35:07;102189.00;;;5.30
33877;BMP180;20166;51.738;7.158;2023-11-22T02:37:53;102183.00;;;5.30
33877;BMP180;20166;51.738;7.158;2023-11-22T02:40:41;102183.00;;;5.30
33877;BMP180;20166;51.738;7.158;2023-11-22T02:43:27;102178.00;;;5.20
33877;BMP180;20166;51.738;7.158;2023-11-22T02:46:14;102190.00;;;5.10
33877;BMP180;20166;51.738;7.158;2023-11-22T02:49:00;102187.00;;;5.10
33877;BMP180;20166;51.738;7.158;2023-11-22T02:51:47;102189.00;;;5.10
33877;BMP180;20166;51.738;7.158;2023-11-22T02:54:33;102189.00;;;5.10
33877;BMP180;20166;51.738;7.158;2023-11-22T02:57:21;102184.00;;;5.00
33877;BMP180;20166;51.738;7.158;2023-11-22T03:00:09;102192.00;;;5.00
33877;BMP180;20166;51.738;7.158;2023-11-22T03:02:58;102196.00;;;4.90
33877;BMP180;20166;51.738;7.158;2023-11-22T03:05:44;102204.00;;;5.00
33877;BMP180;20166;51.738;7.158;2023-11-22T03:08:31;102212.00;;;4.90
33877;BMP180;20166;51.738;7.158;2023-11-22T03:11:18;102217.00;;;4.80
33877;BMP180;20166;51.738;7.158;2023-11-22T03:14:05;102223.00;;;4.70
33877;BMP180;20166;51.738;7.158;2023-11-22T03:16:52;102214.00;;;4.70
33877;BMP180;20166;51.738;7.158;2023-11-22T03:19:38;102227.00;;;4.60
33877;BMP180;20166;51.738;7.158;2023-11-22T03:22:25;102218.00;;;4.60
33877;BMP180;20166;51.738;7.158;2023-11-22T03:25:13;102226.00;;;4.50
33877;BMP180;20166;51.738;7.158;2023-11-22T03:27:59;102221.00;;;4.30
33877;BMP180;20166;51.738;7.158;2023-11-22T03:30:47;102226.00;;;4.30
33877;BMP180;20166;51.738;7.158;2023-11-22T03:33:33;102223.00;;;4.30
33877;BMP180;20166;51.738;7.158;2023-11-22T03:36:20;102240.00;;;4.30
33877;BMP180;20166;51.738;7.158;2023-11-22T03:39:07;102233.00;;;4.30
33877;BMP180;20166;51.738;7.158;2023-11-22T03:41:55;102240.00;;;4.20
33877;BMP180;20166;51.738;7.158;2023-11-22T03:44:42;102246.00;;;4.20
33877;BMP180;20166;51.738;7.158;2023-11-22T03:47:30;102252.00;;;4.10
33877;BMP180;20166;51.738;7.158;2023-11-22T03:50:18;102247.00;;;4.00
33877;BMP180;20166;51.738;7.158;2023-11-22T03:53:04;102258.00;;;3.90
33877;BMP180;20166;51.738;7.158;2023-11-22T03:55:52;102258.00;;;3.90
33877;BMP180;20166;51.738;7.158;2023-11-22T03:58:39;102256.00;;;3.80
33877;BMP180;20166;51.738;7.158;2023-11-22T04:01:26;102266.00;;;3.80
33877;BMP180;20166;51.738;7.158;2023-11-22T04:04:14;102271.00;;;3.70
33877;BMP180;20166;51.738;7.158;2023-11-22T04:07:00;102273.00;;;3.70
33877;BMP180;20166;51.738;7.158;2023-11-22T04:09:47;102282.00;;;3.60
33877;BMP180;20166;51.738;7.158;2023-11-22T04:12:34;102283.00;;;3.60
33877;BMP180;20166;51.738;7.158;2023-11-22T04:15:21;102290.00;;;3.70
33877;BMP180;20166;51.738;7.158;2023-11-22T04:18:07;102295.00;;;3.50
33877;BMP180;20166;51.738;7.158;2023-11-22T04:20:56;102299.00;;;3.60
33877;BMP180;20166;51.738;7.158;2023-11-22T04:23:43;102297.00;;;3.50
33877;BMP180;20166;51.738;7.158;2023-11-22T04:26:30;102298.00;;;3.50
33877;BMP180;20166;51.738;7.158;2023-11-22T04:29:16;102279.00;;;3.50
33877;BMP180;20166;51.738;7.158;2023-11-22T04:32:04;102286.00;;;3.50
33877;BMP180;20166;51.738;7.158;2023-11-22T04:34:50;102290.00;;;3.40
33877;BMP180;20166;51.738;7.158;2023-11-22T04:37:37;102292.00;;;3.50
33877;BMP180;20166;51.738;7.158;2023-11-22T04:40:24;102289.00;;;3.50
33877;BMP180;20166;51.738;7.158;2023-11-22T04:43:10;102290.00;;;3.40
33877;BMP180;20166;51.738;7.158;2023-11-22T04:45:56;102280.00;;;3.40
33877;BMP180;20166;51.738;7.158;2023-11-22T04:48:43;102281.00;;;3.40
33877;BMP180;20166;51.738;7.158;2023-11-22T04:51:30;102292.00;;;3.40
33877;BMP180;20166;51.738;7.158;2023-11-22T04:54:18;102281.00;;;3.40
33877;BMP180;20166;51.738;7.158;2023-11-22T04:57:05;102293.00;;;3.40
33877;BMP180;20166;51.738;7.158;2023-11-22T04:59:51;102310.00;;;3.40
33877;BMP180;20166;51.738;7.158;2023-11-22T05:02:38;102313.00;;;3.40
33877;BMP180;20166;51.738;7.158;2023-11-22T05:05:25;102308.00;;;3.40
33877;BMP180;20166;51.738;7.158;2023-11-22T05:08:12;102306.00;;;3.40
33877;BMP180;20166;51.738;7.158;2023-11-22T05:11:00;102314.00;;;3.40
33877;BMP180;20166;51.738;7.158;2023-11-22T05:13:46;102321.00;;;3.40
33877;BMP180;20166;51.738;7.158;2023-11-22T05:16:32;102314.00;;;3.40
33877;BMP180;20166;51.738;7.158;2023-11-22T05:19:19;102322.00;;;3.40
33877;BMP180;20166;51.738;7.158;2023-11-22T05:22:06;102320.00;;;3.40
33877;BMP180;20166;51.738;7.158;2023-11-22T05:24:53;102319.00;;;3.30
33877;BMP180;20166;51.738;7.158;2023-11-22T05:27:42;102333.00;;;3.30
33877;BMP180;20166;51.738;7.158;2023-11-22T05:30:29;102329.00;;;3.30
33877;BMP180;20166;51.738;7.158;2023-11-22T05:33:15;102327.00;;;3.30
33877;BMP180;20166;51.738;7.158;2023-11-22T05:36:01;102329.00;;;3.30
33877;BMP180;20166;51.738;7.158;2023-11-22T05:38:48;102338.00;;;3.30
33877;BMP180;20166;51.738;7.158;2023-11-22T05:41:35;102332.00;;;3.20
33877;BMP180;20166;51.738;7.158;2023-11-22T05:44:22;102336.00;;;3.20
33877;BMP180;20166;51.738;7.158;2023-11-22T05:47:10;102341.00;;;3.20
33877;BMP180;20166;51.738;7.158;2023-11-22T05:49:58;102345.00;;;3.20
33877;BMP180;20166;51.738;7.158;2023-11-22T05:52:44;102344.00;;;3.20
33877;BMP180;20166;51.738;7.158;2023-11-22T05:55:30;102345.00;;;3.20
33877;BMP180;20166;51.738;7.158;2023-11-22T05:58:17;102334.00;;;3.20
33877;BMP180;20166;51.738;7.158;2023-11-22T06:01:05;102328.00;;;3.10
33877;BMP180;20166;51.738;7.158;2023-11-22T06:03:51;102319.00;;;3.10
33877;BMP180;20166;51.738;7.158;2023-11-22T06:06:37;102319.00;;;3.00
33877;BMP180;20166;51.738;7.158;2023-11-22T06:09:25;102328.00;;;2.90
33877;BMP180;20166;51.738;7.158;2023-11-22T06:12:11;102323.00;;;2.80
33877;BMP180;20166;51.738;7.158;2023-11-22T06:14:57;102338.00;;;2.80
33877;BMP180;20166;51.738;7.158;2023-11-22T06:17:45;102339.00;;;2.80
33877;BMP180;20166;51.738;7.158;2023-11-22T06:20:31;102336.00;;;2.70
33877;BMP180;20166;51.738;7.158;2023-11-22T06:23:18;102345.00;;;2.70
33877;BMP180;20166;51.738;7.158;2023-11-22T06:26:04;102343.00;;;2.70
33877;BMP180;20166;51.738;7.158;2023-11-22T06:28:51;102352.00;;;2.70
33877;BMP180;20166;51.738;7.158;2023-11-22T06:31:38;102363.00;;;2.70
33877;BMP180;20166;51.738;7.158;2023-11-22T06:34:27;102354.00;;;2.60
33877;BMP180;20166;51.738;7.158;2023-11-22T06:37:14;102367.00;;;2.70
33877;BMP180;20166;51.738;7.158;2023-11-22T06:40:01;102364.00;;;2.50
33877;BMP180;20166;51.738;7.158;2023-11-22T06:42:47;102365.00;;;2.60
33877;BMP180;20166;51.738;7.158;2023-11-22T06:45:33;102363.00;;;2.50
33877;BMP180;20166;51.738;7.158;2023-11-22T06:48:20;102360.00;;;2.50
33877;BMP180;20166;51.738;7.158;2023-11-22T06:51:07;102359.00;;;2.50
33877;BMP180;20166;51.738;7.158;2023-11-22T06:53:54;102355.00;;;2.50
33877;BMP180;20166;51.738;7.158;2023-11-22T06:56:42;102362.00;;;2.50
33877;BMP180;20166;51.738;7.158;2023-11-22T06:59:30;102367.00;;;2.40
33877;BMP180;20166;51.738;7.158;2023-11-22T07:02:16;102378.00;;;2.50
33877;BMP180;20166;51.738;7.158;2023-11-22T07:05:04;102381.00;;;2.50
33877;BMP180;20166;51.738;7.158;2023-11-22T07:07:54;102389.00;;;2.40
33877;BMP180;20166;51.738;7.158;2023-11-22T07:10:41;102401.00;;;2.40
33877;BMP180;20166;51.738;7.158;2023-11-22T07:13:27;102398.00;;;2.40
33877;BMP180;20166;51.738;7.158;2023-11-22T07:16:13;102402.00;;;2.40
33877;BMP180;20166;51.738;7.158;2023-11-22T07:19:01;102404.00;;;2.40
33877;BMP180;20166;51.738;7.158;2023-11-22T07:21:48;102421.00;;;2.40
33877;BMP180;20166;51.738;7.158;2023-11-22T07:24:35;102419.00;;;2.50
33877;BMP180;20166;51.738;7.158;2023-11-22T07:27:23;102411.00;;;2.50
33877;BMP180;20166;51.738;7.158;2023-11-22T07:30:12;102417.00;;;2.60
33877;BMP180;20166;51.738;7.158;2023-11-22T07:32:59;102412.00;;;2.60
33877;BMP180;20166;51.738;7.158;2023-11-22T07:35:46;102422.00;;;2.60
33877;BMP180;20166;51.738;7.158;2023-11-22T07:38:33;102415.00;;;2.60
33877;BMP180;20166;51.738;7.158;2023-11-22T07:41:24;102417.00;;;2.60
33877;BMP180;20166;51.738;7.158;2023-11-22T07:44:11;102425.00;;;2.70
33877;BMP180;20166;51.738;7.158;2023-11-22T07:47:00;102418.00;;;2.70
33877;BMP180;20166;51.738;7.158;2023-11-22T07:49:46;102414.00;;;2.80
33877;BMP180;20166;51.738;7.158;2023-11-22T07:52:33;102400.00;;;2.80
33877;BMP180;20166;51.738;7.158;2023-11-22T07:55:20;102382.00;;;2.70
33877;BMP180;20166;51.738;7.158;2023-11-22T07:58:08;102372.00;;;2.70
33877;BMP180;20166;51.738;7.158;2023-11-22T08:00:56;102374.00;;;2.80
33877;BMP180;20166;51.738;7.158;2023-11-22T08:03:42;102368.00;;;2.90
33877;BMP180;20166;51.738;7.158;2023-11-22T08:06:31;102375.00;;;2.90
33877;BMP180;20166;51.738;7.158;2023-11-22T08:09:17;102382.00;;;2.90
33877;BMP180;20166;51.738;7.158;2023-11-22T08:12:05;102387.00;;;2.90
33877;BMP180;20166;51.738;7.158;2023-11-22T08:14:53;102391.00;;;2.90
33877;BMP180;20166;51.738;7.158;2023-11-22T08:17:41;102377.00;;;3.00
33877;BMP180;20166;51.738;7.158;2023-11-22T08:20:28;102389.00;;;3.00
33877;BMP180;20166;51.738;7.158;2023-11-22T08:23:15;102396.00;;;3.00
33877;BMP180;20166;51.738;7.158;2023-11-22T08:26:01;102400.00;;;3.00
33877;BMP180;20166;51.738;7.158;2023-11-22T08:28:48;102421.00;;;3.10
33877;BMP180;20166;51.738;7.158;2023-11-22T08:31:35;102430.00;;;3.20
33877;BMP180;20166;51.738;7.158;2023-11-22T08:34:22;102439.00;;;3.30
33877;BMP180;20166;51.738;7.158;2023-11-22T08:37:08;102459.00;;;3.30
33877;BMP180;20166;51.738;7.158;2023-11-22T08:39:55;102466.00;;;3.30
33877;BMP180;20166;51.738;7.158;2023-11-22T08:42:41;102502.00;;;3.40
33877;BMP180;20166;51.738;7.158;2023-11-22T08:45:28;102508.00;;;3.40
33877;BMP180;20166;51.738;7.158;2023-11-22T08:48:16;102509.00;;;3.50
33877;BMP180;20166;51.738;7.158;2023-11-22T08:51:04;102513.00;;;3.60
33877;BMP180;20166;51.738;7.158;2023-11-22T08:53:52;102494.00;;;3.70
33877;BMP180;20166;51.738;7.158;2023-11-22T08:56:39;102479.00;;;3.80
33877;BMP180;20166;51.738;7.158;2023-11-22T08:59:27;102471.00;;;3.90
33877;BMP180;20166;51.738;7.158;2023-11-22T09:02:14;102479.00;;;4.00
33877;BMP180;20166;51.738;7.158;2023-11-22T09:05:02;102466.00;;;4.10
33877;BMP180;20166;51.738;7.158;2023-11-22T09:07:51;102463.00;;;4.10
33877;BMP180;20166;51.738;7.158;2023-11-22T09:10:40;102455.00;;;4.30
33877;BMP180;20166;51.738;7.158;2023-11-22T09:13:27;102448.00;;;4.40
33877;BMP180;20166;51.738;7.158;2023-11-22T09:16:14;102460.00;;;4.40
33877;BMP180;20166;51.738;7.158;2023-11-22T09:19:02;102465.00;;;4.50
33877;BMP180;20166;51.738;7.158;2023-11-22T09:21:50;102451.00;;;4.50
33877;BMP180;20166;51.738;7.158;2023-11-22T09:24:37;102454.00;;;4.60
33877;BMP180;20166;51.738;7.158;2023-11-22T09:27:23;102450.00;;;4.70
33877;BMP180;20166;51.738;7.158;2023-11-22T09:30:11;102444.00;;;4.70
33877;BMP180;20166;51.738;7.158;2023-11-22T09:33:04;102450.00;;;4.80
33877;BMP180;20166;51.738;7.158;2023-11-22T09:35:50;102447.00;;;4.80
33877;BMP180;20166;51.738;7.158;2023-11-22T09:38:38;102449.00;;;4.90
33877;BMP180;20166;51.738;7.158;2023-11-22T09:41:24;102451.00;;;4.90
33877;BMP180;20166;51.738;7.158;2023-11-22T09:44:12;102471.00;;;4.90
33877;BMP180;20166;51.738;7.158;2023-11-22T09:46:59;102475.00;;;5.00
33877;BMP180;20166;51.738;7.158;2023-11-22T09:49:47;102476.00;;;5.00
33877;BMP180;20166;51.738;7.158;2023-11-22T09:52:37;102480.00;;;5.00
33877;BMP180;20166;51.738;7.158;2023-11-22T09:55:28;102478.00;;;5.10
33877;BMP180;20166;51.738;7.158;2023-11-22T09:58:16;102472.00;;;5.00
33877;BMP180;20166;51.738;7.158;2023-11-22T10:01:03;102467.00;;;5.10
33877;BMP180;20166;51.738;7.158;2023-11-22T10:03:50;102460.00;;;5.20
33877;BMP180;20166;51.738;7.158;2023-11-22T10:06:36;102459.00;;;5.20
33877;BMP180;20166;51.738;7.158;2023-11-22T10:09:23;102459.00;;;5.30
33877;BMP180;20166;51.738;7.158;2023-11-22T10:12:11;102466.00;;;5.40
33877;BMP180;20166;51.738;7.158;2023-11-22T10:15:11;102461.00;;;5.40
33877;BMP180;20166;51.738;7.158;2023-11-22T10:17:59;102464.00;;;5.40
33877;BMP180;20166;51.738;7.158;2023-11-22T10:20:47;102467.00;;;5.40
33877;BMP180;20166;51.738;7.158;2023-11-22T10:23:34;102473.00;;;5.40
33877;BMP180;20166;51.738;7.158;2023-11-22T10:26:20;102461.00;;;5.50
33877;BMP180;20166;51.738;7.158;2023-11-22T10:29:12;102465.00;;;5.50
33877;BMP180;20166;51.738;7.158;2023-11-22T10:31:58;102467.00;;;5.50
33877;BMP180;20166;51.738;7.158;2023-11-22T10:34:45;102475.00;;;5.70
33877;BMP180;20166;51.738;7.158;2023-11-22T10:37:32;102471.00;;;5.80
33877;BMP180;20166;51.738;7.158;2023-11-22T10:40:18;102479.00;;;5.80
33877;BMP180;20166;51.738;7.158;2023-11-22T10:43:06;102462.00;;;5.80
33877;BMP180;20166;51.738;7.158;2023-11-22T10:45:55;102446.00;;;5.90
33877;BMP180;20166;51.738;7.158;2023-11-22T10:48:42;102455.00;;;5.90
33877;BMP180;20166;51.738;7.158;2023-11-22T10:51:30;102443.00;;;6.10
33877;BMP180;20166;51.738;7.158;2023-11-22T10:54:18;102443.00;;;6.20
33877;BMP180;20166;51.738;7.158;2023-11-22T10:57:06;102440.00;;;6.10
33877;BMP180;20166;51.738;7.158;2023-11-22T10:59:54;102431.00;;;6.10
33877;BMP180;20166;51.738;7.158;2023-11-22T11:02:45;102441.00;;;6.10
33877;BMP180;20166;51.738;7.158;2023-11-22T11:05:36;102425.00;;;6.10
33877;BMP180;20166;51.738;7.158;2023-11-22T11:08:25;102420.00;;;6.20
33877;BMP180;20166;51.738;7.158;2023-11-22T11:11:12;102415.00;;;6.30
33877;BMP180;20166;51.738;7.158;2023-11-22T11:14:00;102414.00;;;6.20
33877;BMP180;20166;51.738;7.158;2023-11-22T11:16:50;102410.00;;;6.20
33877;BMP180;20166;51.738;7.158;2023-11-22T11:19:40;102415.00;;;6.30
33877;BMP180;20166;51.738;7.158;2023-11-22T11:22:27;102423.00;;;6.30
33877;BMP180;20166;51.738;7.158;2023-11-22T11:25:15;102418.00;;;6.40
33877;BMP180;20166;51.738;7.158;2023-11-22T11:28:03;102419.00;;;6.40
33877;BMP180;20166;51.738;7.158;2023-11-22T11:30:51;102421.00;;;6.40
33877;BMP180;20166;51.738;7.158;2023-11-22T11:33:53;102427.00;;;6.40
33877;BMP180;20166;51.738;7.158;2023-11-22T11:36:42;102443.00;;;6.40
33877;BMP180;20166;51.738;7.158;2023-11-22T11:39:28;102437.00;;;6.60
33877;BMP180;20166;51.738;7.158;2023-11-22T11:42:15;102442.00;;;6.60
33877;BMP180;20166;51.738;7.158;2023-11-22T11:45:05;102410.00;;;6.60
33877;BMP180;20166;51.738;7.158;2023-11-22T11:47:52;102419.00;;;6.70
33877;BMP180;20166;51.738;7.158;2023-11-22T11:50:39;102400.00;;;6.70
33877;BMP180;20166;51.738;7.158;2023-11-22T11:53:27;102378.00;;;6.60
33877;BMP180;20166;51.738;7.158;2023-11-22T11:56:16;102359.00;;;6.50
33877;BMP180;20166;51.738;7.158;2023-11-22T11:59:03;102353.00;;;6.40
33877;BMP180;20166;51.738;7.158;2023-11-22T12:01:52;102342.00;;;6.40
33877;BMP180;20166;51.738;7.158;2023-11-22T12:04:40;102326.00;;;6.30
33877;BMP180;20166;51.738;7.158;2023-11-22T12:07:29;102307.00;;;6.30
33877;BMP180;20166;51.738;7.158;2023-11-22T12:10:17;102297.00;;;6.40
33877;BMP180;20166;51.738;7.158;2023-11-22T12:13:03;102303.00;;;6.40
33877;BMP180;20166;51.738;7.158;2023-11-22T12:15:50;102293.00;;;6.60
33877;BMP180;20166;51.738;7.158;2023-11-22T12:18:43;102277.00;;;6.60
33877;BMP180;20166;51.738;7.158;2023-11-22T12:21:30;102276.00;;;6.70
33877;BMP180;20166;51.738;7.158;2023-11-22T12:24:18;102274.00;;;6.80
33877;BMP180;20166;51.738;7.158;2023-11-22T12:27:09;102280.00;;;6.60
33877;BMP180;20166;51.738;7.158;2023-11-22T12:29:55;102285.00;;;6.60
33877;BMP180;20166;51.738;7.158;2023-11-22T12:32:43;102265.00;;;6.60
33877;BMP180;20166;51.738;7.158;2023-11-22T12:35:30;102285.00;;;6.60
33877;BMP180;20166;51.738;7.158;2023-11-22T12:38:17;102269.00;;;6.60
33877;BMP180;20166;51.738;7.158;2023-11-22T12:41:05;102279.00;;;6.50
33877;BMP180;20166;51.738;7.158;2023-11-22T12:44:03;102275.00;;;6.50
33877;BMP180;20166;51.738;7.158;2023-11-22T12:46:52;102272.00;;;6.50
33877;BMP180;20166;51.738;7.158;2023-11-22T12:49:43;102280.00;;;6.50
33877;BMP180;20166;51.738;7.158;2023-11-22T12:52:30;102272.00;;;6.50
33877;BMP180;20166;51.738;7.158;2023-11-22T12:55:17;102278.00;;;6.60
33877;BMP180;20166;51.738;7.158;2023-11-22T12:58:04;102276.00;;;6.40
33877;BMP180;20166;51.738;7.158;2023-11-22T13:00:54;102271.00;;;6.40
33877;BMP180;20166;51.738;7.158;2023-11-22T13:03:46;102259.00;;;6.40
33877;BMP180;20166;51.738;7.158;2023-11-22T13:06:32;102244.00;;;6.40
33877;BMP180;20166;51.738;7.158;2023-11-22T13:09:19;102255.00;;;6.40
33877;BMP180;20166;51.738;7.158;2023-11-22T13:12:05;102269.00;;;6.50
33877;BMP180;20166;51.738;7.158;2023-11-22T13:14:52;102269.00;;;6.50
33877;BMP180;20166;51.738;7.158;2023-11-22T13:17:39;102274.00;;;6.50
33877;BMP180;20166;51.738;7.158;2023-11-22T13:20:26;102282.00;;;6.70
33877;BMP180;20166;51.738;7.158;2023-11-22T13:23:13;102268.00;;;6.60
33877;BMP180;20166;51.738;7.158;2023-11-22T13:25:59;102278.00;;;6.70
33877;BMP180;20166;51.738;7.158;2023-11-22T13:28:46;102271.00;;;6.70
33877;BMP180;20166;51.738;7.158;2023-11-22T13:31:33;102270.00;;;6.70
33877;BMP180;20166;51.738;7.158;2023-11-22T13:34:20;102262.00;;;6.70
33877;BMP180;20166;51.738;7.158;2023-11-22T13:37:07;102262.00;;;6.80
33877;BMP180;20166;51.738;7.158;2023-11-22T13:39:53;102265.00;;;6.80
33877;BMP180;20166;51.738;7.158;2023-11-22T13:42:41;102247.00;;;6.80
33877;BMP180;20166;51.738;7.158;2023-11-22T13:45:28;102239.00;;;6.80
33877;BMP180;20166;51.738;7.158;2023-11-22T13:48:14;102245.00;;;6.80
33877;BMP180;20166;51.738;7.158;2023-11-22T13:51:03;102241.00;;;6.80
33877;BMP180;20166;51.738;7.158;2023-11-22T13:53:52;102238.00;;;6.80
33877;BMP180;20166;51.738;7.158;2023-11-22T13:56:39;102247.00;;;6.90
33877;BMP180;20166;51.738;7.158;2023-11-22T13:59:25;102246.00;;;6.90
33877;BMP180;20166;51.738;7.158;2023-11-22T14:02:12;102255.00;;;6.90
33877;BMP180;20166;51.738;7.158;2023-11-22T14:04:58;102249.00;;;6.90
33877;BMP180;20166;51.738;7.158;2023-11-22T14:07:46;102247.00;;;6.90
33877;BMP180;20166;51.738;7.158;2023-11-22T14:10:33;102250.00;;;6.80
33877;BMP180;20166;51.738;7.158;2023-11-22T14:13:19;102241.00;;;6.90
33877;BMP180;20166;51.738;7.158;2023-11-22T14:16:06;102242.00;;;6.90
33877;BMP180;20166;51.738;7.158;2023-11-22T14:18:53;102238.00;;;6.90
33877;BMP180;20166;51.738;7.158;2023-11-22T14:21:40;102253.00;;;6.90
33877;BMP180;20166;51.738;7.158;2023-11-22T14:24:28;102254.00;;;6.80
33877;BMP180;20166;51.738;7.158;2023-11-22T14:27:15;102260.00;;;6.80
33877;BMP180;20166;51.738;7.158;2023-11-22T14:30:01;102255.00;;;6.80
33877;BMP180;20166;51.738;7.158;2023-11-22T14:32:51;102263.00;;;6.80
33877;BMP180;20166;51.738;7.158;2023-11-22T14:35:38;102253.00;;;6.80
33877;BMP180;20166;51.738;7.158;2023-11-22T14:38:24;102258.00;;;6.70
33877;BMP180;20166;51.738;7.158;2023-11-22T14:41:13;102249.00;;;6.70
33877;BMP180;20166;51.738;7.158;2023-11-22T14:43:59;102244.00;;;6.70
33877;BMP180;20166;51.738;7.158;2023-11-22T14:46:45;102251.00;;;6.60
33877;BMP180;20166;51.738;7.158;2023-11-22T14:49:32;102246.00;;;6.60
33877;BMP180;20166;51.738;7.158;2023-11-22T14:52:31;102253.00;;;6.50
33877;BMP180;20166;51.738;7.158;2023-11-22T14:55:18;102250.00;;;6.50
33877;BMP180;20166;51.738;7.158;2023-11-22T14:58:07;102248.00;;;6.50
33877;BMP180;20166;51.738;7.158;2023-11-22T15:00:53;102247.00;;;6.40
33877;BMP180;20166;51.738;7.158;2023-11-22T15:03:42;102254.00;;;6.40
33877;BMP180;20166;51.738;7.158;2023-11-22T15:06:28;102250.00;;;6.40
33877;BMP180;20166;51.738;7.158;2023-11-22T15:09:15;102258.00;;;6.40
33877;BMP180;20166;51.738;7.158;2023-11-22T15:12:03;102256.00;;;6.40
33877;BMP180;20166;51.738;7.158;2023-11-22T15:14:51;102265.00;;;6.40
33877;BMP180;20166;51.738;7.158;2023-11-22T15:17:37;102272.00;;;6.30
33877;BMP180;20166;51.738;7.158;2023-11-22T15:20:24;102262.00;;;6.30
33877;BMP180;20166;51.738;7.158;2023-11-22T15:23:11;102264.00;;;6.30
33877;BMP180;20166;51.738;7.158;2023-11-22T15:25:57;102266.00;;;6.30
33877;BMP180;20166;51.738;7.158;2023-11-22T15:28:44;102265.00;;;6.30
33877;BMP180;20166;51.738;7.158;2023-11-22T15:31:33;102263.00;;;6.30
33877;BMP180;20166;51.738;7.158;2023-11-22T15:34:19;102255.00;;;6.30
33877;BMP180;20166;51.738;7.158;2023-11-22T15:37:06;102247.00;;;6.20
33877;BMP180;20166;51.738;7.158;2023-11-22T15:39:52;102246.00;;;6.20
33877;BMP180;20166;51.738;7.158;2023-11-22T15:42:38;102242.00;;;6.20
33877;BMP180;20166;51.738;7.158;2023-11-22T15:45:24;102244.00;;;6.20
33877;BMP180;20166;51.738;7.158;2023-11-22T15:48:12;102225.00;;;6.20
33877;BMP180;20166;51.738;7.158;2023-11-22T15:51:00;102211.00;;;6.20
33877;BMP180;20166;51.738;7.158;2023-11-22T15:53:46;102203.00;;;6.20
33877;BMP180;20166;51.738;7.158;2023-11-22T15:56:33;102196.00;;;6.20
33877;BMP180;20166;51.738;7.158;2023-11-22T15:59:20;102194.00;;;6.20
33877;BMP180;20166;51.738;7.158;2023-11-22T16:02:06;102185.00;;;6.20
33877;BMP180;20166;51.738;7.158;2023-11-22T16:04:54;102198.00;;;6.20